createdAt,value
2018-03-28T00:01:54.352Z,9.00
2018-03-28T00:04:21.866Z,9.87
2018-03-28T00:06:50.142Z,10.53
2018-03-28T00:09:17.626Z,11.40
2018-03-28T00:11:45.145Z,10.63
2018-03-28T00:14:12.648Z,11.00
2018-03-28T00:16:40.192Z,9.83
2018-03-28T00:19:07.686Z,10.60
2018-03-28T00:21:35.166Z,9.70
2018-03-28T00:24:02.676Z,9.87
2018-03-28T00:26:30.182Z,10.10
2018-03-28T00:28:57.660Z,10.83
2018-03-28T00:31:25.153Z,10.13
2018-03-28T00:33:52.630Z,10.83
2018-03-28T00:36:20.143Z,11.27
2018-03-28T00:38:47.745Z,11.20
2018-03-28T00:41:15.249Z,11.80
2018-03-28T00:43:42.751Z,11.23
2018-03-28T00:46:10.228Z,12.00
2018-03-28T00:48:37.690Z,11.40
2018-03-28T00:51:17.037Z,10.63
2018-03-28T00:53:44.530Z,11.80
2018-03-28T00:56:12.040Z,11.70
2018-03-28T00:58:40.420Z,11.13
2018-03-28T01:01:08.642Z,10.87
2018-03-28T01:03:36.929Z,11.10
2018-03-28T01:06:05.190Z,11.80
2018-03-28T01:08:32.716Z,12.97
2018-03-28T01:11:00.184Z,12.60
2018-03-28T01:13:27.677Z,12.60
2018-03-28T01:15:55.184Z,11.97
2018-03-28T01:18:22.658Z,12.23
2018-03-28T01:20:50.954Z,11.37
2018-03-28T01:23:18.431Z,13.63
2018-03-28T01:25:46.687Z,12.47
2018-03-28T01:28:14.163Z,11.73
2018-03-28T01:30:42.386Z,12.13
2018-03-28T01:33:10.004Z,11.47
2018-03-28T01:35:37.563Z,12.13
2018-03-28T01:38:05.075Z,10.70
2018-03-28T01:40:32.561Z,11.90
2018-03-28T01:43:00.043Z,11.10
2018-03-28T01:45:28.339Z,12.13
2018-03-28T01:47:55.861Z,11.93
2018-03-28T01:50:24.130Z,12.03
2018-03-28T01:52:52.397Z,11.03
2018-03-28T01:55:19.897Z,12.50
2018-03-28T01:57:47.403Z,10.73
2018-03-28T02:00:14.900Z,10.47
2018-03-28T02:02:42.422Z,10.50
2018-03-28T02:05:09.928Z,9.13
2018-03-28T02:07:37.402Z,10.20
2018-03-28T02:10:04.880Z,11.20
2018-03-28T02:12:32.405Z,7.40
2018-03-28T02:15:00.149Z,8.87
2018-03-28T02:17:28.458Z,9.47
2018-03-28T02:19:56.739Z,8.53
2018-03-28T02:22:24.223Z,9.97
2018-03-28T02:24:51.741Z,10.03
2018-03-28T02:27:19.222Z,8.80
2018-03-28T02:29:46.744Z,9.77
2018-03-28T02:32:14.222Z,9.40
2018-03-28T02:34:41.691Z,9.83
2018-03-28T02:37:09.190Z,9.03
2018-03-28T02:39:36.679Z,9.13
2018-03-28T02:42:04.191Z,8.50
2018-03-28T02:44:31.663Z,8.07
2018-03-28T02:46:59.905Z,7.97
2018-03-28T02:49:27.419Z,7.77
2018-03-28T02:51:54.934Z,6.50
2018-03-28T02:54:22.422Z,7.07
2018-03-28T02:56:50.696Z,6.50
2018-03-28T02:59:18.976Z,7.10
2018-03-28T03:01:46.469Z,7.10
2018-03-28T03:04:13.939Z,6.70
2018-03-28T03:06:41.443Z,6.40
2018-03-28T03:09:09.695Z,6.50
2018-03-28T03:11:37.172Z,5.83
2018-03-28T03:14:04.896Z,6.00
2018-03-28T03:16:32.381Z,5.87
2018-03-28T03:18:59.864Z,6.37
2018-03-28T03:21:27.327Z,6.80
2018-03-28T03:23:54.807Z,5.77
2018-03-28T03:26:22.275Z,4.57
2018-03-28T03:28:49.850Z,5.00
2018-03-28T03:31:17.358Z,5.17
2018-03-28T03:33:44.891Z,4.83
2018-03-28T03:36:12.402Z,4.60
2018-03-28T03:38:39.901Z,6.00
2018-03-28T03:41:07.361Z,4.30
2018-03-28T03:43:34.916Z,4.60
2018-03-28T03:46:03.152Z,4.80
2018-03-28T03:48:30.634Z,4.73
2018-03-28T03:50:58.124Z,4.63
2018-03-28T03:53:26.378Z,6.67
2018-03-28T03:55:53.908Z,6.50
2018-03-28T03:58:21.368Z,6.50
2018-03-28T04:00:50.724Z,6.47
2018-03-28T04:03:18.228Z,8.90
2018-03-28T04:05:45.710Z,6.97
2018-03-28T04:08:13.207Z,7.43
2018-03-28T04:10:40.775Z,7.67
2018-03-28T04:13:08.252Z,7.50
2018-03-28T04:15:35.812Z,8.30
2018-03-28T04:18:03.313Z,8.10
2018-03-28T04:20:31.624Z,8.30
2018-03-28T04:22:59.157Z,8.93
2018-03-28T04:25:26.615Z,8.43
2018-03-28T04:27:54.098Z,8.37
2018-03-28T04:30:21.573Z,8.47
2018-03-28T04:32:49.088Z,8.03
2018-03-28T04:35:17.347Z,8.30
2018-03-28T04:37:46.175Z,9.20
2018-03-28T04:40:13.668Z,8.53
2018-03-28T04:42:41.881Z,7.90
2018-03-28T04:45:10.131Z,7.67
2018-03-28T04:47:37.611Z,8.23
2018-03-28T04:50:05.086Z,7.47
2018-03-28T04:52:32.598Z,8.13
2018-03-28T04:55:00.126Z,9.57
2018-03-28T04:57:27.613Z,7.17
2018-03-28T04:59:55.100Z,7.37
2018-03-28T05:02:22.581Z,8.37
2018-03-28T05:04:50.077Z,8.37
2018-03-28T05:07:17.568Z,9.07
2018-03-28T05:09:45.848Z,9.13
2018-03-28T05:12:14.075Z,10.67
2018-03-28T05:14:41.539Z,8.83
2018-03-28T05:17:09.807Z,9.50
2018-03-28T05:19:37.303Z,8.30
2018-03-28T05:22:04.817Z,9.40
2018-03-28T05:24:32.323Z,8.97
2018-03-28T05:27:01.449Z,9.10
2018-03-28T05:29:28.963Z,6.50
2018-03-28T05:31:56.512Z,7.83
2018-03-28T05:34:24.034Z,8.60
2018-03-28T05:36:51.508Z,7.40
2018-03-28T05:39:19.763Z,9.00
2018-03-28T05:41:47.948Z,7.90
2018-03-28T05:44:15.444Z,8.03
2018-03-28T05:46:43.795Z,9.80
2018-03-28T05:49:11.308Z,7.27
2018-03-28T05:51:38.839Z,7.53
2018-03-28T05:54:06.355Z,7.53
2018-03-28T05:56:33.874Z,9.03
2018-03-28T05:59:03.083Z,8.27
2018-03-28T06:01:30.564Z,8.50
2018-03-28T06:03:58.083Z,9.13
2018-03-28T06:06:25.582Z,7.90
2018-03-28T06:08:53.134Z,9.00
2018-03-28T06:11:20.675Z,6.83
2018-03-28T06:13:48.135Z,6.90
2018-03-28T06:16:15.661Z,7.23
2018-03-28T06:18:43.175Z,8.57
2018-03-28T06:21:10.691Z,8.30
2018-03-28T06:23:38.981Z,6.77
2018-03-28T06:26:07.251Z,8.73
2018-03-28T06:28:35.568Z,8.13
2018-03-28T06:31:03.058Z,8.40
2018-03-28T06:33:30.522Z,8.10
2018-03-28T06:35:58.247Z,7.47
2018-03-28T06:38:26.735Z,7.00
2018-03-28T06:40:54.882Z,6.97
2018-03-28T06:43:22.387Z,8.00
2018-03-28T06:45:52.063Z,7.90
2018-03-28T06:48:19.566Z,7.93
2018-03-28T06:50:47.856Z,7.73
2018-03-28T06:53:15.369Z,9.60
2018-03-28T06:55:42.887Z,7.70
2018-03-28T06:58:11.114Z,9.23
2018-03-28T07:00:38.601Z,8.20
2018-03-28T07:03:06.116Z,7.00
2018-03-28T07:05:33.588Z,7.23
2018-03-28T07:08:01.124Z,7.20
2018-03-28T07:10:28.613Z,9.00
2018-03-28T07:12:56.110Z,10.13
2018-03-28T07:15:23.619Z,8.33
2018-03-28T07:17:51.125Z,10.03
2018-03-28T07:20:18.634Z,9.97
2018-03-28T07:22:46.121Z,9.63
2018-03-28T07:25:13.599Z,8.80
2018-03-28T07:27:41.080Z,9.60
2018-03-28T07:30:08.814Z,9.17
2018-03-28T07:32:36.307Z,8.83
2018-03-28T07:35:03.833Z,8.50
2018-03-28T07:37:31.364Z,8.87
2018-03-28T07:39:58.860Z,9.37
2018-03-28T07:42:26.344Z,9.33
2018-03-28T07:44:53.829Z,9.87
2018-03-28T07:47:21.523Z,10.70
2018-03-28T07:49:49.042Z,10.40
2018-03-28T07:52:16.569Z,9.63
2018-03-28T07:54:44.826Z,9.40
2018-03-28T07:57:12.341Z,8.37
2018-03-28T07:59:39.810Z,8.87
2018-03-28T08:02:07.294Z,10.90
2018-03-28T08:04:34.786Z,10.80
2018-03-28T08:07:02.552Z,9.87
2018-03-28T08:09:30.062Z,11.57
2018-03-28T08:11:57.868Z,11.10
2018-03-28T08:14:25.361Z,11.97
2018-03-28T08:16:52.839Z,11.77
2018-03-28T08:19:20.317Z,11.63
2018-03-28T08:21:48.642Z,11.67
2018-03-28T08:24:16.156Z,12.00
2018-03-28T08:26:44.419Z,10.60
2018-03-28T08:29:12.688Z,8.90
2018-03-28T08:31:40.174Z,10.30
2018-03-28T08:34:07.701Z,10.43
2018-03-28T08:36:35.971Z,10.90
2018-03-28T08:39:04.236Z,11.70
2018-03-28T08:41:31.742Z,11.40
2018-03-28T08:43:59.211Z,10.87
2018-03-28T08:46:26.781Z,11.23
2018-03-28T08:48:54.270Z,11.00
2018-03-28T08:51:22.205Z,11.73
2018-03-28T08:53:49.715Z,9.70
2018-03-28T08:56:17.276Z,11.03
2018-03-28T08:58:45.559Z,11.57
2018-03-28T09:01:13.059Z,11.77
2018-03-28T09:03:40.556Z,12.80
2018-03-28T09:06:08.068Z,10.37
2018-03-28T09:08:35.578Z,11.70
2018-03-28T09:11:03.846Z,11.53
2018-03-28T09:13:32.126Z,10.30
2018-03-28T09:16:00.391Z,10.83
2018-03-28T09:18:27.890Z,9.67
2018-03-28T09:20:55.371Z,10.80
2018-03-28T09:23:22.871Z,10.13
2018-03-28T09:25:51.120Z,8.70
2018-03-28T09:28:18.592Z,8.50
2018-03-28T09:30:46.087Z,9.93
2018-03-28T09:33:13.583Z,9.47
2018-03-28T09:35:41.132Z,9.63
2018-03-28T09:38:08.615Z,9.70
2018-03-28T09:40:36.333Z,8.13
2018-03-28T09:43:03.810Z,8.97
2018-03-28T09:45:31.298Z,8.97
2018-03-28T09:47:58.784Z,9.53
2018-03-28T09:50:26.271Z,8.07
2018-03-28T09:52:53.768Z,9.60
2018-03-28T09:55:21.294Z,7.90
2018-03-28T09:57:48.764Z,7.80
2018-03-28T10:00:21.912Z,6.63
2018-03-28T10:02:49.392Z,7.03
2018-03-28T10:05:16.880Z,8.00
2018-03-28T10:07:44.383Z,8.00
2018-03-28T10:10:11.876Z,7.20
2018-03-28T10:12:39.376Z,7.67
2018-03-28T10:15:07.641Z,6.30
2018-03-28T10:17:35.131Z,6.50
2018-03-28T10:20:02.627Z,7.23
2018-03-28T10:22:30.108Z,6.40
2018-03-28T10:24:57.663Z,6.57
2018-03-28T10:27:25.143Z,4.47
2018-03-28T10:29:53.444Z,5.77
2018-03-28T10:32:20.908Z,5.87
2018-03-28T10:34:48.374Z,5.40
2018-03-28T10:37:15.856Z,6.10
2018-03-28T10:39:43.371Z,5.63
2018-03-28T10:42:10.876Z,5.90
2018-03-28T10:44:39.120Z,4.93
2018-03-28T10:47:06.815Z,5.23
2018-03-28T10:49:34.513Z,5.40
2018-03-28T10:52:02.000Z,5.40
2018-03-28T10:54:36.454Z,8.03
2018-03-28T10:57:04.187Z,5.77
2018-03-28T10:59:31.672Z,6.20
2018-03-28T11:01:59.171Z,5.47
2018-03-28T11:04:26.719Z,5.97
2018-03-28T11:06:54.177Z,5.97
2018-03-28T11:09:22.442Z,5.17
2018-03-28T11:11:50.725Z,5.27
2018-03-28T11:14:18.177Z,4.93
2018-03-28T11:16:45.660Z,5.33
2018-03-28T11:19:13.906Z,5.53
2018-03-28T11:21:41.392Z,5.33
2018-03-28T11:24:10.925Z,4.50
2018-03-28T11:26:38.626Z,4.60
2018-03-28T11:29:06.127Z,4.53
2018-03-28T11:31:33.594Z,4.77
2018-03-28T11:34:01.091Z,5.70
2018-03-28T11:36:28.562Z,4.30
2018-03-28T11:38:56.052Z,4.40
2018-03-28T11:41:23.556Z,4.00
2018-03-28T11:43:51.057Z,4.00
2018-03-28T11:46:18.549Z,3.90
2018-03-28T11:48:53.050Z,4.50
2018-03-28T11:51:20.520Z,4.37
2018-03-28T11:53:47.995Z,5.50
2018-03-28T11:56:15.466Z,7.80
2018-03-28T11:58:42.975Z,6.00
2018-03-28T12:01:10.452Z,5.17
2018-03-28T12:03:37.943Z,4.50
2018-03-28T12:06:05.404Z,5.20
2018-03-28T12:08:32.872Z,8.43
2018-03-28T12:11:00.366Z,6.00
2018-03-28T12:13:29.232Z,5.13
2018-03-28T12:15:56.722Z,5.07
2018-03-28T12:18:24.222Z,5.10
2018-03-28T12:20:51.705Z,4.00
2018-03-28T12:23:27.774Z,5.43
2018-03-28T12:25:56.020Z,5.00
2018-03-28T12:28:26.496Z,4.33
2018-03-28T12:30:53.976Z,5.50
2018-03-28T12:33:21.487Z,5.60
2018-03-28T12:35:49.744Z,6.87
2018-03-28T12:38:17.216Z,8.63
2018-03-28T12:40:44.712Z,9.83
2018-03-28T12:43:12.174Z,10.00
2018-03-28T12:45:39.657Z,10.60
2018-03-28T12:48:07.951Z,10.00
2018-03-28T12:50:35.433Z,10.90
2018-03-28T12:53:03.687Z,11.63
2018-03-28T12:55:31.178Z,12.27
2018-03-28T12:57:58.650Z,11.43
2018-03-28T13:00:26.165Z,12.47
2018-03-28T13:02:54.432Z,11.47
2018-03-28T13:05:21.943Z,12.00
2018-03-28T13:07:49.434Z,10.30
2018-03-28T13:10:16.941Z,10.43
2018-03-28T13:12:44.549Z,10.60
2018-03-28T13:15:12.024Z,10.13
2018-03-28T13:17:39.520Z,10.10
2018-03-28T13:20:07.023Z,8.03
2018-03-28T13:22:34.504Z,7.73
2018-03-28T13:25:01.983Z,9.17
2018-03-28T13:27:29.467Z,8.70
2018-03-28T13:29:56.966Z,8.30
2018-03-28T13:32:24.442Z,8.37
2018-03-28T13:34:51.910Z,9.90
2018-03-28T13:37:20.172Z,8.00
2018-03-28T13:39:48.439Z,6.47
2018-03-28T13:42:15.971Z,6.90
2018-03-28T13:44:43.448Z,6.40
2018-03-28T13:47:10.916Z,5.80
2018-03-28T13:49:38.423Z,5.17
2018-03-28T13:52:05.935Z,5.70
2018-03-28T13:54:33.431Z,6.50
2018-03-28T13:57:00.909Z,5.37
2018-03-28T13:59:28.367Z,5.47
2018-03-28T14:01:55.860Z,6.23
2018-03-28T14:04:24.141Z,5.30
2018-03-28T14:06:59.156Z,5.00
2018-03-28T14:09:26.664Z,6.10
2018-03-28T14:11:54.186Z,4.77
2018-03-28T14:14:21.683Z,4.80
2018-03-28T14:16:49.224Z,4.90
2018-03-28T14:19:16.715Z,4.67
2018-03-28T14:21:44.302Z,4.33
2018-03-28T14:24:11.743Z,4.40
2018-03-28T14:26:39.240Z,4.70
2018-03-28T14:29:07.493Z,5.10
2018-03-28T14:31:35.033Z,4.87
2018-03-28T14:34:02.453Z,4.03
2018-03-28T14:36:29.929Z,4.67
2018-03-28T14:38:58.303Z,4.10
2018-03-28T14:41:25.797Z,4.70
2018-03-28T14:43:53.297Z,4.93
2018-03-28T14:46:22.342Z,3.90
2018-03-28T14:48:50.860Z,3.17
2018-03-28T14:51:18.350Z,3.53
2018-03-28T14:53:45.829Z,3.27
2018-03-28T14:56:13.328Z,2.93
2018-03-28T14:58:41.838Z,3.00
2018-03-28T15:01:09.334Z,3.90
2018-03-28T15:03:36.815Z,3.03
2018-03-28T15:06:04.286Z,3.23
2018-03-28T15:08:32.551Z,3.10
2018-03-28T15:11:00.030Z,2.63
2018-03-28T15:13:27.513Z,2.30
2018-03-28T15:15:55.040Z,3.90
2018-03-28T15:18:23.280Z,2.57
2018-03-28T15:20:50.774Z,3.00
2018-03-28T15:23:19.033Z,2.67
2018-03-28T15:25:46.500Z,3.60
2018-03-28T15:28:14.426Z,2.80
2018-03-28T15:30:41.895Z,2.80
2018-03-28T15:33:10.164Z,4.50
2018-03-28T15:35:37.648Z,3.97
2018-03-28T15:38:05.119Z,8.67
2018-03-28T15:40:33.373Z,9.67
2018-03-28T15:43:00.851Z,4.60
2018-03-28T15:45:28.344Z,12.17
2018-03-28T15:47:55.812Z,5.33
2018-03-28T15:50:23.275Z,2.50
2018-03-28T15:52:50.774Z,2.67
2018-03-28T15:55:18.251Z,4.03
2018-03-28T15:57:45.744Z,4.80
2018-03-28T16:00:13.244Z,2.80
2018-03-28T16:02:41.748Z,2.97
2018-03-28T16:05:09.230Z,5.20
2018-03-28T16:07:36.707Z,11.20
2018-03-28T16:10:04.246Z,17.73
2018-03-28T16:12:31.809Z,9.20
2018-03-28T16:14:59.276Z,5.50
2018-03-28T16:17:26.817Z,3.03
2018-03-28T16:19:54.280Z,4.30
2018-03-28T16:22:21.747Z,2.90
2018-03-28T16:24:49.263Z,3.07
2018-03-28T16:27:16.743Z,2.83
2018-03-28T16:29:44.224Z,3.33
2018-03-28T16:32:11.702Z,2.80
2018-03-28T16:34:39.518Z,3.60
2018-03-28T16:37:07.034Z,3.33
2018-03-28T16:39:34.517Z,2.53
2018-03-28T16:42:03.366Z,2.97
2018-03-28T16:44:30.852Z,3.70
2018-03-28T16:46:59.131Z,3.90
2018-03-28T16:49:26.591Z,21.60
2018-03-28T16:51:54.062Z,6.40
2018-03-28T16:54:21.552Z,5.47
2018-03-28T16:56:49.023Z,7.20
2018-03-28T16:59:16.506Z,6.53
2018-03-28T17:01:44.050Z,5.93
2018-03-28T17:04:11.526Z,2.80
2018-03-28T17:06:40.656Z,7.50
2018-03-28T17:09:08.131Z,9.73
2018-03-28T17:11:35.615Z,13.20
2018-03-28T17:14:03.182Z,5.40
2018-03-28T17:16:30.612Z,8.27
2018-03-28T17:18:58.105Z,4.57
2018-03-28T17:21:26.588Z,4.43
2018-03-28T17:23:54.123Z,4.30
2018-03-28T17:26:21.670Z,4.47
2018-03-28T17:28:49.145Z,3.23
2018-03-28T17:31:16.633Z,3.50
2018-03-28T17:33:44.140Z,3.80
2018-03-28T17:36:11.615Z,4.00
2018-03-28T17:38:39.128Z,2.50
2018-03-28T17:41:06.743Z,2.40
2018-03-28T17:43:35.529Z,2.23
2018-03-28T17:46:03.026Z,2.90
2018-03-28T17:48:30.500Z,3.07
2018-03-28T17:50:58.016Z,3.07
2018-03-28T17:53:25.490Z,2.93
2018-03-28T17:55:53.797Z,3.87
2018-03-28T17:58:21.219Z,2.33
2018-03-28T18:00:48.719Z,3.20
2018-03-28T18:03:16.192Z,2.47
2018-03-28T18:05:43.678Z,2.33
2018-03-28T18:08:11.968Z,2.23
2018-03-28T18:10:40.237Z,2.70
2018-03-28T18:13:08.526Z,2.10
2018-03-28T18:15:36.017Z,2.00
2018-03-28T18:18:03.545Z,2.37
2018-03-28T18:20:31.058Z,2.43
2018-03-28T18:22:59.635Z,2.43
2018-03-28T18:25:27.132Z,3.03
2018-03-28T18:27:55.396Z,2.23
2018-03-28T18:30:23.664Z,1.97
2018-03-28T18:32:51.219Z,1.90
2018-03-28T18:35:18.731Z,1.90
2018-03-28T18:37:46.228Z,2.60
2018-03-28T18:40:13.725Z,2.17
2018-03-28T18:42:41.224Z,2.67
2018-03-28T18:45:08.948Z,3.13
2018-03-28T18:47:37.298Z,2.83
2018-03-28T18:50:04.718Z,2.17
2018-03-28T18:52:32.196Z,2.40
2018-03-28T18:54:59.699Z,2.40
2018-03-28T18:57:27.250Z,2.10
2018-03-28T18:59:54.750Z,3.27
2018-03-28T19:02:22.272Z,2.30
2018-03-28T19:04:49.798Z,2.90
2018-03-28T19:07:17.307Z,3.73
2018-03-28T19:09:44.829Z,2.50
2018-03-28T19:12:13.116Z,1.60
2018-03-28T19:14:41.363Z,1.60
2018-03-28T19:17:08.836Z,2.00
2018-03-28T19:19:37.145Z,1.80
2018-03-28T19:22:04.616Z,2.13
2018-03-28T19:24:32.119Z,1.43
2018-03-28T19:26:59.610Z,1.57
2018-03-28T19:29:27.094Z,2.10
2018-03-28T19:31:54.609Z,2.30
2018-03-28T19:34:22.097Z,1.70
2018-03-28T19:36:49.602Z,2.70
2018-03-28T19:39:17.109Z,1.90
2018-03-28T19:41:44.628Z,1.87
2018-03-28T19:44:12.131Z,2.40
2018-03-28T19:46:39.595Z,2.07
2018-03-28T19:49:07.108Z,1.60
2018-03-28T19:51:35.389Z,1.60
2018-03-28T19:54:03.656Z,2.00
2018-03-28T19:56:31.954Z,2.00
2018-03-28T19:58:59.459Z,1.80
2018-03-28T20:01:26.950Z,1.67
2018-03-28T20:03:54.449Z,1.80
2018-03-28T20:06:21.923Z,2.83
2018-03-28T20:08:49.440Z,2.50
2018-03-28T20:11:17.720Z,2.10
2018-03-28T20:13:45.211Z,2.00
2018-03-28T20:16:12.723Z,1.40
2018-03-28T20:18:40.543Z,2.07
2018-03-28T20:21:08.065Z,2.47
2018-03-28T20:23:35.553Z,2.30
2018-03-28T20:26:03.026Z,2.03
2018-03-28T20:28:30.779Z,2.97
2018-03-28T20:30:59.236Z,3.00
2018-03-28T20:33:27.493Z,2.30
2018-03-28T20:35:56.578Z,4.30
2018-03-28T20:38:25.094Z,2.93
2018-03-28T20:40:53.805Z,3.20
2018-03-28T20:43:21.406Z,3.40
2018-03-28T20:45:49.027Z,2.80
2018-03-28T20:48:16.745Z,4.00
2018-03-28T20:50:45.329Z,3.20
2018-03-28T20:53:12.882Z,4.30
2018-03-28T20:55:40.426Z,3.07
2018-03-28T20:58:08.761Z,4.03
2018-03-28T21:00:36.286Z,3.80
2018-03-28T21:03:03.815Z,5.00
2018-03-28T21:05:32.124Z,5.10
2018-03-28T21:08:00.556Z,4.70
2018-03-28T21:10:28.088Z,5.03
2018-03-28T21:12:55.596Z,3.70
2018-03-28T21:15:23.182Z,4.30
2018-03-28T21:17:50.784Z,3.03
2018-03-28T21:20:18.313Z,3.57
2018-03-28T21:22:45.852Z,3.70
2018-03-28T21:25:16.311Z,4.97
2018-03-28T21:27:43.837Z,4.30
2018-03-28T21:30:11.548Z,3.73
2018-03-28T21:32:39.026Z,4.10
2018-03-28T21:35:06.567Z,3.47
2018-03-28T21:37:34.102Z,3.70
2018-03-28T21:40:01.614Z,3.93
2018-03-28T21:42:29.095Z,4.13
2018-03-28T21:44:56.591Z,3.90
2018-03-28T21:47:24.097Z,4.80
2018-03-28T21:49:51.568Z,4.37
2018-03-28T21:52:19.068Z,4.70
2018-03-28T21:54:46.566Z,5.00
2018-03-28T21:57:14.020Z,5.40
2018-03-28T21:59:42.269Z,5.40
2018-03-28T22:02:09.740Z,5.10
2018-03-28T22:04:38.011Z,5.53
2018-03-28T22:07:05.490Z,5.40
2018-03-28T22:09:33.743Z,4.63
2018-03-28T22:12:01.245Z,4.93
2018-03-28T22:14:29.481Z,5.13
2018-03-28T22:16:57.724Z,5.63
2018-03-28T22:19:25.227Z,5.60
2018-03-28T22:21:53.483Z,6.00
2018-03-28T22:24:20.967Z,5.63
2018-03-28T22:26:48.438Z,4.93
2018-03-28T22:29:15.922Z,6.23
2018-03-28T22:31:43.440Z,5.17
2018-03-28T22:34:10.937Z,6.63
2018-03-28T22:36:38.410Z,7.03
2018-03-28T22:39:05.888Z,6.30
2018-03-28T22:41:33.349Z,7.67
2018-03-28T22:44:00.864Z,6.17
2018-03-28T22:46:28.334Z,5.50
2018-03-28T22:48:55.835Z,6.43
2018-03-28T22:51:24.079Z,7.10
2018-03-28T22:53:51.556Z,6.43
2018-03-28T22:56:19.057Z,6.63
2018-03-28T22:58:46.543Z,6.30
2018-03-28T23:01:14.815Z,8.13
2018-03-28T23:03:42.276Z,6.13
2018-03-28T23:06:09.759Z,5.23
2018-03-28T23:08:37.291Z,5.50
2018-03-28T23:11:04.791Z,6.00
2018-03-28T23:13:32.297Z,6.80
2018-03-28T23:15:59.772Z,4.87
2018-03-28T23:18:27.259Z,5.67
2018-03-28T23:20:55.597Z,4.97
2018-03-28T23:23:23.065Z,5.20
2018-03-28T23:25:50.555Z,4.80
2018-03-28T23:28:18.825Z,4.20
2018-03-28T23:30:46.351Z,4.00
2018-03-28T23:33:13.835Z,3.70
2018-03-28T23:35:42.083Z,4.03
2018-03-28T23:38:09.577Z,2.67
2018-03-28T23:40:37.039Z,3.10
2018-03-28T23:43:04.509Z,3.30
2018-03-28T23:45:32.000Z,3.10
2018-03-28T23:48:00.226Z,2.80
2018-03-28T23:50:27.711Z,3.27
2018-03-28T23:52:55.167Z,3.47
2018-03-28T23:55:22.636Z,3.17
2018-03-28T23:57:50.129Z,2.17
